createdAt,value
2022-08-19T00:02:19.706Z,7.45
2022-08-19T00:04:53.421Z,7.20
2022-08-19T00:07:22.050Z,6.72
2022-08-19T00:09:51.320Z,7.30
2022-08-19T00:12:20.639Z,7.00
2022-08-19T00:14:48.658Z,6.70
2022-08-19T00:17:17.577Z,7.55
2022-08-19T00:19:45.484Z,7.45
2022-08-19T00:22:13.427Z,6.68
2022-08-19T00:24:42.206Z,7.13
2022-08-19T00:27:26.221Z,6.60
2022-08-19T00:29:54.962Z,7.63
2022-08-19T00:32:23.938Z,7.18
2022-08-19T00:34:52.783Z,8.00
2022-08-19T00:37:20.748Z,6.70
2022-08-19T00:39:49.214Z,7.30
2022-08-19T00:42:17.738Z,7.30
2022-08-19T00:44:48.968Z,7.38
2022-08-19T00:47:17.035Z,5.90
2022-08-19T00:49:52.625Z,6.82
2022-08-19T00:52:24.783Z,7.05
2022-08-19T00:54:54.070Z,6.75
2022-08-19T00:57:24.872Z,6.60
2022-08-19T01:00:02.524Z,7.82
2022-08-19T01:02:32.494Z,7.75
2022-08-19T01:05:01.245Z,7.53
2022-08-19T01:07:29.307Z,8.10
2022-08-19T01:10:06.271Z,7.70
2022-08-19T01:12:35.234Z,7.30
2022-08-19T01:15:05.045Z,6.88
2022-08-19T01:17:33.386Z,6.63
2022-08-19T01:20:01.281Z,7.25
2022-08-19T01:22:33.880Z,7.60
2022-08-19T01:25:02.274Z,7.00
2022-08-19T01:27:42.873Z,6.93
2022-08-19T01:30:13.802Z,7.43
2022-08-19T01:32:41.795Z,7.18
2022-08-19T01:35:10.349Z,7.35
2022-08-19T01:37:46.485Z,7.18
2022-08-19T01:40:14.913Z,7.63
2022-08-19T01:42:43.252Z,7.35
2022-08-19T01:45:11.906Z,7.65
2022-08-19T01:47:40.147Z,6.95
2022-08-19T01:50:09.049Z,8.02
2022-08-19T01:52:37.982Z,7.75
2022-08-19T01:55:08.718Z,7.55
2022-08-19T01:57:37.019Z,7.40
2022-08-19T02:00:07.583Z,7.93
2022-08-19T02:02:39.275Z,7.40
2022-08-19T02:05:08.199Z,7.10
2022-08-19T02:07:41.222Z,8.38
2022-08-19T02:10:12.549Z,8.10
2022-08-19T02:12:41.458Z,7.35
2022-08-19T02:15:09.698Z,7.85
2022-08-19T02:17:37.580Z,8.40
2022-08-19T02:20:06.127Z,7.93
2022-08-19T02:22:34.426Z,7.82
2022-08-19T02:25:02.534Z,7.93
2022-08-19T02:27:34.472Z,7.50
2022-08-19T02:30:02.783Z,8.68
2022-08-19T02:32:31.782Z,8.10
2022-08-19T02:34:59.811Z,7.55
2022-08-19T02:37:45.832Z,7.57
2022-08-19T02:40:13.965Z,7.90
2022-08-19T02:42:43.747Z,8.40
2022-08-19T02:45:11.952Z,8.02
2022-08-19T02:47:39.868Z,7.55
2022-08-19T02:50:26.803Z,7.93
2022-08-19T02:52:54.786Z,7.93
2022-08-19T02:55:22.991Z,8.63
2022-08-19T02:57:52.307Z,8.82
2022-08-19T03:00:20.285Z,7.88
2022-08-19T03:02:49.869Z,8.40
2022-08-19T03:05:18.236Z,8.60
2022-08-19T03:07:56.731Z,9.02
2022-08-19T03:10:24.619Z,8.20
2022-08-19T03:12:54.195Z,8.40
2022-08-19T03:15:22.297Z,9.00
2022-08-19T03:17:50.172Z,8.65
2022-08-19T03:20:18.367Z,8.77
2022-08-19T03:22:46.626Z,8.52
2022-08-19T03:25:14.527Z,8.63
2022-08-19T03:27:42.367Z,8.02
2022-08-19T03:30:12.561Z,7.90
2022-08-19T03:32:45.293Z,8.45
2022-08-19T03:35:13.537Z,8.10
2022-08-19T03:37:42.149Z,9.10
2022-08-19T03:40:10.536Z,8.75
2022-08-19T03:42:58.644Z,8.98
2022-08-19T03:45:28.496Z,8.63
2022-08-19T03:47:57.147Z,8.90
2022-08-19T03:50:25.422Z,8.65
2022-08-19T03:52:53.862Z,9.40
2022-08-19T03:55:22.350Z,8.80
2022-08-19T03:57:50.267Z,10.68
2022-08-19T04:00:19.043Z,9.23
2022-08-19T04:02:56.559Z,9.18
2022-08-19T04:05:29.472Z,9.60
2022-08-19T04:08:00.106Z,8.57
2022-08-19T04:10:28.788Z,9.90
2022-08-19T04:12:56.723Z,9.55
2022-08-19T04:15:24.919Z,9.70
2022-08-19T04:17:54.179Z,9.85
2022-08-19T04:20:22.538Z,9.50
2022-08-19T04:22:50.396Z,9.43
2022-08-19T04:25:18.369Z,9.55
2022-08-19T04:27:47.494Z,12.23
2022-08-19T04:30:15.874Z,9.80
2022-08-19T04:32:44.727Z,9.70
2022-08-19T04:35:16.920Z,9.60
2022-08-19T04:37:46.808Z,9.07
2022-08-19T04:40:32.064Z,8.52
2022-08-19T04:43:00.000Z,9.07
2022-08-19T04:45:27.809Z,9.30
2022-08-19T04:48:26.223Z,9.00
2022-08-19T04:53:21.175Z,9.52
2022-08-19T04:55:49.037Z,9.15
2022-08-19T04:58:17.524Z,9.10
2022-08-19T05:00:45.687Z,8.50
2022-08-19T05:03:14.134Z,8.73
2022-08-19T05:05:44.616Z,8.68
2022-08-19T05:08:14.170Z,9.43
2022-08-19T05:10:44.635Z,8.05
2022-08-19T05:13:12.861Z,9.82
2022-08-19T05:15:41.082Z,7.63
2022-08-19T05:18:34.736Z,8.65
2022-08-19T05:21:24.573Z,9.52
2022-08-19T05:23:52.504Z,8.95
2022-08-19T05:26:21.728Z,8.00
2022-08-19T05:28:52.986Z,9.07
2022-08-19T05:31:23.272Z,8.52
2022-08-19T05:33:51.597Z,8.00
2022-08-19T05:36:21.029Z,8.55
2022-08-19T05:38:51.255Z,9.80
2022-08-19T05:41:19.390Z,9.20
2022-08-19T05:43:51.759Z,8.10
2022-08-19T05:46:27.935Z,8.20
2022-08-19T05:48:57.552Z,8.07
2022-08-19T05:51:29.473Z,9.45
2022-08-19T05:53:57.428Z,8.95
2022-08-19T05:56:25.370Z,8.05
2022-08-19T05:58:55.211Z,9.35
2022-08-19T06:01:23.356Z,8.20
2022-08-19T06:03:51.390Z,7.55
2022-08-19T06:06:22.070Z,8.30
2022-08-19T06:08:51.990Z,8.60
2022-08-19T06:11:22.612Z,8.45
2022-08-19T06:13:59.398Z,8.73
2022-08-19T06:16:31.766Z,8.63
2022-08-19T06:19:01.825Z,7.95
2022-08-19T06:21:31.664Z,7.68
2022-08-19T06:24:01.111Z,8.15
2022-08-19T06:26:29.284Z,8.13
2022-08-19T06:28:57.790Z,8.10
2022-08-19T06:31:27.711Z,7.07
2022-08-19T06:33:57.016Z,6.93
2022-08-19T06:36:28.156Z,7.70
2022-08-19T06:38:56.868Z,7.72
2022-08-19T06:41:24.862Z,7.22
2022-08-19T06:43:55.764Z,14.48
2022-08-19T06:46:24.752Z,8.18
2022-08-19T06:48:54.715Z,7.18
2022-08-19T06:51:25.128Z,7.60
2022-08-19T06:53:54.125Z,6.22
2022-08-19T06:56:27.045Z,6.68
2022-08-19T06:58:55.146Z,7.45
2022-08-19T07:01:31.259Z,6.63
2022-08-19T07:03:59.515Z,6.85
2022-08-19T07:06:44.853Z,6.78
2022-08-19T07:09:14.509Z,7.32
2022-08-19T07:11:47.250Z,7.18
2022-08-19T07:14:20.852Z,6.80
2022-08-19T07:16:49.573Z,7.28
2022-08-19T07:19:18.824Z,7.30
2022-08-19T07:21:49.469Z,7.15
2022-08-19T07:24:19.079Z,6.90
2022-08-19T07:26:51.901Z,7.85
2022-08-19T07:29:21.526Z,6.32
2022-08-19T07:31:52.217Z,6.88
2022-08-19T07:34:20.834Z,7.10
2022-08-19T07:36:50.447Z,6.75
2022-08-19T07:39:20.880Z,7.13
2022-08-19T07:41:49.127Z,6.00
2022-08-19T07:44:17.431Z,6.72
2022-08-19T07:46:48.172Z,6.15
2022-08-19T07:49:20.174Z,7.20
2022-08-19T07:51:48.935Z,7.18
2022-08-19T07:54:19.018Z,6.70
2022-08-19T07:56:47.194Z,6.95
2022-08-19T07:59:15.113Z,6.47
2022-08-19T08:01:43.194Z,6.68
2022-08-19T08:04:28.632Z,6.45
2022-08-19T08:07:14.029Z,6.07
2022-08-19T08:09:44.604Z,6.10
2022-08-19T08:12:33.527Z,7.05
2022-08-19T08:15:03.825Z,6.43
2022-08-19T08:17:48.603Z,8.32
2022-08-19T08:20:18.261Z,7.45
2022-08-19T08:23:03.740Z,6.20
2022-08-19T08:25:34.325Z,6.35
2022-08-19T08:28:02.406Z,9.13
2022-08-19T08:30:32.825Z,6.80
2022-08-19T08:33:00.962Z,6.00
2022-08-19T08:35:30.708Z,6.35
2022-08-19T08:37:58.602Z,5.70
2022-08-19T08:40:30.218Z,6.05
2022-08-19T08:45:30.718Z,6.00
2022-08-19T08:48:23.857Z,5.60
2022-08-19T08:50:53.749Z,5.55
2022-08-19T08:53:26.317Z,5.90
2022-08-19T08:55:59.036Z,5.72
2022-08-19T08:58:31.890Z,7.18
2022-08-19T09:00:59.782Z,6.30
2022-08-19T09:03:31.574Z,7.20
2022-08-19T09:06:02.552Z,5.32
2022-08-19T09:08:35.191Z,5.75
2022-08-19T09:11:06.388Z,5.70
2022-08-19T09:13:41.112Z,6.40
2022-08-19T09:16:10.105Z,5.85
2022-08-19T09:18:41.729Z,5.65
2022-08-19T09:21:09.937Z,11.23
2022-08-19T09:23:38.636Z,12.57
2022-08-19T09:26:10.370Z,8.80
2022-08-19T09:28:44.361Z,6.25
2022-08-19T09:31:17.888Z,6.30
2022-08-19T09:33:47.249Z,5.38
2022-08-19T09:36:23.494Z,5.88
2022-08-19T09:39:02.638Z,6.97
2022-08-19T09:41:30.710Z,6.57
2022-08-19T09:44:00.465Z,5.45
2022-08-19T09:46:31.568Z,5.70
2022-08-19T09:49:06.169Z,5.75
2022-08-19T09:51:35.193Z,6.05
2022-08-19T09:54:05.251Z,6.30
2022-08-19T09:56:34.906Z,5.22
2022-08-19T09:59:05.772Z,5.32
2022-08-19T10:01:34.300Z,6.25
2022-08-19T10:04:07.553Z,6.88
2022-08-19T10:06:46.843Z,5.88
2022-08-19T10:09:15.728Z,6.63
2022-08-19T10:11:52.583Z,6.72
2022-08-19T10:14:24.744Z,5.45
2022-08-19T10:16:53.130Z,5.00
2022-08-19T10:19:25.607Z,5.60
2022-08-19T10:21:55.649Z,4.60
2022-08-19T10:24:29.733Z,5.95
2022-08-19T10:26:59.573Z,5.50
2022-08-19T10:29:32.990Z,5.45
2022-08-19T10:32:02.854Z,5.88
2022-08-19T10:34:31.732Z,5.63
2022-08-19T10:37:01.907Z,5.78
2022-08-19T10:39:31.439Z,4.68
2022-08-19T10:42:00.836Z,4.93
2022-08-19T10:44:32.585Z,5.35
2022-08-19T10:47:01.084Z,5.30
2022-08-19T10:49:29.014Z,4.82
2022-08-19T10:52:19.086Z,5.15
2022-08-19T10:55:08.235Z,5.07
2022-08-19T11:00:26.863Z,5.45
2022-08-19T11:02:54.822Z,5.18
2022-08-19T11:05:24.317Z,4.93
2022-08-19T11:07:53.142Z,4.95
2022-08-19T11:10:22.200Z,5.30
2022-08-19T11:12:55.229Z,5.18
2022-08-19T11:15:23.444Z,4.85
2022-08-19T11:17:55.252Z,5.07
2022-08-19T11:20:24.754Z,5.18
2022-08-19T11:22:53.639Z,6.55
2022-08-19T11:25:21.544Z,5.10
2022-08-19T11:27:52.131Z,5.32
2022-08-19T11:30:20.123Z,5.40
2022-08-19T11:32:49.628Z,5.80
2022-08-19T11:35:21.205Z,6.22
2022-08-19T11:37:56.416Z,6.20
2022-08-19T11:40:24.355Z,5.57
2022-08-19T11:42:58.053Z,4.80
2022-08-19T11:45:27.381Z,4.90
2022-08-19T11:47:56.565Z,5.63
2022-08-19T11:50:25.955Z,4.82
2022-08-19T11:52:55.687Z,5.35
2022-08-19T11:55:24.054Z,5.50
2022-08-19T11:57:52.033Z,5.53
2022-08-19T12:00:20.072Z,13.40
2022-08-19T12:02:48.361Z,9.77
2022-08-19T12:05:16.297Z,10.40
2022-08-19T12:07:46.310Z,8.98
2022-08-19T12:10:14.276Z,9.35
2022-08-19T12:12:54.680Z,14.55
2022-08-19T12:15:28.921Z,6.05
2022-08-19T12:18:05.912Z,4.97
2022-08-19T12:20:36.355Z,12.75
2022-08-19T12:23:05.870Z,15.50
2022-08-19T12:25:34.133Z,15.40
2022-08-19T12:28:02.447Z,10.20
2022-08-19T12:30:31.440Z,7.50
2022-08-19T12:33:00.187Z,8.02
2022-08-19T12:35:28.380Z,7.55
2022-08-19T12:37:57.632Z,7.65
2022-08-19T12:40:27.569Z,7.13
2022-08-19T12:42:55.570Z,8.00
2022-08-19T12:45:23.779Z,8.73
2022-08-19T12:47:54.851Z,9.65
2022-08-19T12:50:23.335Z,9.60
2022-08-19T12:52:51.483Z,8.13
2022-08-19T12:55:20.290Z,8.70
2022-08-19T12:57:50.050Z,9.20
2022-08-19T13:00:19.514Z,8.57
2022-08-19T13:02:50.685Z,9.98
2022-08-19T13:05:21.032Z,9.25
2022-08-19T13:07:49.507Z,9.02
2022-08-19T13:10:18.613Z,8.48
2022-08-19T13:12:47.488Z,8.93
2022-08-19T13:15:21.722Z,8.98
2022-08-19T13:17:52.312Z,9.00
2022-08-19T13:20:21.284Z,8.73
2022-08-19T13:22:49.420Z,8.90
2022-08-19T13:25:20.592Z,9.88
2022-08-19T13:27:49.700Z,9.05
2022-08-19T13:30:36.962Z,8.95
2022-08-19T13:33:15.953Z,8.27
2022-08-19T13:35:45.283Z,7.03
2022-08-19T13:38:13.722Z,6.97
2022-08-19T13:40:42.138Z,6.40
2022-08-19T13:43:23.104Z,6.22
2022-08-19T13:45:54.867Z,5.63
2022-08-19T13:48:23.000Z,8.95
2022-08-19T13:50:50.987Z,5.97
2022-08-19T13:53:19.846Z,5.15
2022-08-19T13:55:47.954Z,5.40
2022-08-19T13:58:16.175Z,5.05
2022-08-19T14:00:45.832Z,4.75
2022-08-19T14:03:15.441Z,5.90
2022-08-19T14:05:43.761Z,6.13
2022-08-19T14:08:13.295Z,5.80
2022-08-19T14:10:42.132Z,5.88
2022-08-19T14:13:10.040Z,5.30
2022-08-19T14:15:38.280Z,5.60
2022-08-19T14:18:06.278Z,6.22
2022-08-19T14:20:37.202Z,5.57
2022-08-19T14:23:06.156Z,4.60
2022-08-19T14:25:34.984Z,4.68
2022-08-19T14:28:05.126Z,4.80
2022-08-19T14:30:34.332Z,4.22
2022-08-19T14:33:03.309Z,4.28
2022-08-19T14:35:33.645Z,3.78
2022-08-19T14:38:03.906Z,3.70
2022-08-19T14:40:32.611Z,3.88
2022-08-19T14:43:04.833Z,5.30
2022-08-19T14:45:33.792Z,4.18
2022-08-19T14:48:02.101Z,4.35
2022-08-19T14:50:30.202Z,4.22
2022-08-19T14:53:12.494Z,4.03
2022-08-19T14:55:43.507Z,4.38
2022-08-19T14:58:29.582Z,3.67
2022-08-19T15:00:59.333Z,3.85
2022-08-19T15:03:27.222Z,3.30
2022-08-19T15:05:56.572Z,3.97
2022-08-19T15:08:26.520Z,4.55
2022-08-19T15:10:55.128Z,4.03
2022-08-19T15:13:23.423Z,3.67
2022-08-19T15:15:52.702Z,3.75
2022-08-19T15:18:21.370Z,4.13
2022-08-19T15:20:49.398Z,4.70
2022-08-19T15:23:18.695Z,3.65
2022-08-19T15:25:48.212Z,3.60
2022-08-19T15:28:17.511Z,3.20
2022-08-19T15:30:45.666Z,3.88
2022-08-19T15:33:17.301Z,3.95
2022-08-19T15:35:47.244Z,4.40
2022-08-19T15:38:16.213Z,4.68
2022-08-19T15:40:45.767Z,3.60
2022-08-19T15:43:15.362Z,3.30
2022-08-19T15:45:46.329Z,3.30
2022-08-19T15:48:17.210Z,3.85
2022-08-19T15:50:45.094Z,3.45
2022-08-19T15:53:16.536Z,3.63
2022-08-19T15:55:47.593Z,4.43
2022-08-19T15:58:34.249Z,4.13
2022-08-19T16:01:21.337Z,4.57
2022-08-19T16:04:14.167Z,5.15
2022-08-19T16:06:44.985Z,3.85
2022-08-19T16:09:22.251Z,4.07
2022-08-19T16:11:56.792Z,3.60
2022-08-19T16:14:29.358Z,3.00
2022-08-19T16:16:57.568Z,4.15
2022-08-19T16:19:25.638Z,3.33
2022-08-19T16:21:54.580Z,4.95
2022-08-19T16:24:23.891Z,5.25
2022-08-19T16:26:52.094Z,4.20
2022-08-19T16:29:34.074Z,4.35
2022-08-19T16:32:10.174Z,3.80
2022-08-19T16:34:39.190Z,3.58
2022-08-19T16:37:07.283Z,4.15
2022-08-19T16:39:35.302Z,3.70
2022-08-19T16:42:03.602Z,4.20
2022-08-19T16:44:37.071Z,4.72
2022-08-19T16:47:05.727Z,4.25
2022-08-19T16:49:53.884Z,4.13
2022-08-19T16:52:27.083Z,4.25
2022-08-19T16:54:56.869Z,4.55
2022-08-19T16:57:25.153Z,4.75
2022-08-19T16:59:53.557Z,3.97
2022-08-19T17:02:22.970Z,4.50
2022-08-19T17:04:58.383Z,4.15
2022-08-19T17:07:27.251Z,3.78
2022-08-19T17:09:55.439Z,4.28
2022-08-19T17:12:31.749Z,4.43
2022-08-19T17:15:01.022Z,4.25
2022-08-19T17:17:29.740Z,4.40
2022-08-19T17:19:59.449Z,5.05
2022-08-19T17:22:27.635Z,5.18
2022-08-19T17:24:56.415Z,4.97
2022-08-19T17:27:26.347Z,4.88
2022-08-19T17:29:59.879Z,4.43
2022-08-19T17:32:28.456Z,4.65
2022-08-19T17:34:56.450Z,4.40
2022-08-19T17:37:25.784Z,4.32
2022-08-19T17:39:54.015Z,3.60
2022-08-19T17:42:22.182Z,4.10
2022-08-19T17:44:50.455Z,4.28
2022-08-19T17:47:19.448Z,3.97
2022-08-19T17:49:47.563Z,4.50
2022-08-19T17:52:15.909Z,4.10
2022-08-19T17:54:48.012Z,4.80
2022-08-19T17:57:16.015Z,9.45
2022-08-19T17:59:43.952Z,5.40
2022-08-19T18:02:12.887Z,4.53
2022-08-19T18:04:43.415Z,4.03
2022-08-19T18:07:17.178Z,3.90
2022-08-19T18:09:49.507Z,5.22
2022-08-19T18:12:18.014Z,5.28
2022-08-19T18:14:46.712Z,4.18
2022-08-19T18:17:17.422Z,3.88
2022-08-19T18:19:45.616Z,4.28
2022-08-19T18:22:17.274Z,4.75
2022-08-19T18:24:46.602Z,4.88
2022-08-19T18:27:14.670Z,4.70
2022-08-19T18:29:43.474Z,3.58
2022-08-19T18:32:13.767Z,6.35
2022-08-19T18:34:42.188Z,4.65
2022-08-19T18:37:10.332Z,4.13
2022-08-19T18:39:55.660Z,5.00
2022-08-19T18:42:42.671Z,5.40
2022-08-19T18:45:28.103Z,4.80
2022-08-19T18:48:25.805Z,5.00
2022-08-19T18:50:56.152Z,5.28
2022-08-19T18:53:23.951Z,5.05
2022-08-19T18:55:54.052Z,4.90
2022-08-19T18:58:26.386Z,5.00
2022-08-19T19:00:56.990Z,5.18
2022-08-19T19:03:25.809Z,5.03
2022-08-19T19:05:54.070Z,5.88
2022-08-19T19:08:27.100Z,4.65
2022-08-19T19:10:56.367Z,4.80
2022-08-19T19:13:28.828Z,5.07
2022-08-19T19:15:56.983Z,9.23
2022-08-19T19:18:25.217Z,7.95
2022-08-19T19:20:53.236Z,3.83
2022-08-19T19:23:21.948Z,4.63
2022-08-19T19:25:51.372Z,3.90
2022-08-19T19:28:28.149Z,4.20
2022-08-19T19:30:59.193Z,4.22
2022-08-19T19:33:27.642Z,4.78
2022-08-19T19:35:55.570Z,4.40
2022-08-19T19:38:23.591Z,5.38
2022-08-19T19:40:51.490Z,4.82
2022-08-19T19:43:19.450Z,5.25
2022-08-19T19:45:48.354Z,4.60
2022-08-19T19:48:17.727Z,4.93
2022-08-19T19:50:46.284Z,5.65
2022-08-19T19:53:22.265Z,5.40
2022-08-19T19:55:51.708Z,4.35
2022-08-19T19:58:28.311Z,5.50
2022-08-19T20:00:57.258Z,5.57
2022-08-19T20:03:26.560Z,5.30
2022-08-19T20:05:55.040Z,5.13
2022-08-19T20:08:40.480Z,5.00
2022-08-19T20:11:08.829Z,5.45
2022-08-19T20:13:38.001Z,6.60
2022-08-19T20:16:06.326Z,5.60
2022-08-19T20:18:35.587Z,5.70
2022-08-19T20:21:03.587Z,6.55
2022-08-19T20:23:31.626Z,12.52
2022-08-19T20:26:00.735Z,7.50
2022-08-19T20:28:28.801Z,6.90
2022-08-19T20:30:58.499Z,8.18
2022-08-19T20:33:26.572Z,7.88
2022-08-19T20:35:55.864Z,6.90
2022-08-19T20:38:23.808Z,8.50
2022-08-19T20:40:53.222Z,8.27
2022-08-19T20:43:21.118Z,8.57
2022-08-19T20:45:49.038Z,8.18
2022-08-19T20:48:17.026Z,8.52
2022-08-19T20:50:45.019Z,8.02
2022-08-19T20:53:15.599Z,8.65
2022-08-19T20:55:45.463Z,7.63
2022-08-19T20:58:13.805Z,7.43
2022-08-19T21:00:46.046Z,7.53
2022-08-19T21:03:15.595Z,7.97
2022-08-19T21:05:43.691Z,7.22
2022-08-19T21:08:11.530Z,9.27
2022-08-19T21:10:42.448Z,7.70
2022-08-19T21:13:10.579Z,7.53
2022-08-19T21:15:40.743Z,14.88
2022-08-19T21:18:09.148Z,7.90
2022-08-19T21:20:37.101Z,7.07
2022-08-19T21:23:05.570Z,7.60
2022-08-19T21:25:33.459Z,8.65
2022-08-19T21:28:02.780Z,6.38
2022-08-19T21:30:30.937Z,6.55
2022-08-19T21:33:00.561Z,7.15
2022-08-19T21:35:28.652Z,7.07
2022-08-19T21:37:57.587Z,7.57
2022-08-19T21:40:25.659Z,10.50
2022-08-19T21:42:53.858Z,6.90
2022-08-19T21:45:23.885Z,7.20
2022-08-19T21:47:51.779Z,6.18
2022-08-19T21:50:20.247Z,7.25
2022-08-19T21:52:48.151Z,8.38
2022-08-19T21:55:18.060Z,9.18
2022-08-19T21:57:45.958Z,7.28
2022-08-19T22:00:17.082Z,7.53
2022-08-19T22:02:48.108Z,7.72
2022-08-19T22:05:17.547Z,6.70
2022-08-19T22:07:45.446Z,8.23
2022-08-19T22:10:13.344Z,6.95
2022-08-19T22:12:47.303Z,6.75
2022-08-19T22:15:21.201Z,6.95
2022-08-19T22:17:50.941Z,5.72
2022-08-19T22:20:19.758Z,6.57
2022-08-19T22:22:49.263Z,7.40
2022-08-19T22:25:29.977Z,6.35
2022-08-19T22:28:01.554Z,7.22
2022-08-19T22:30:33.138Z,7.00
2022-08-19T22:33:04.289Z,7.50
2022-08-19T22:35:33.371Z,6.75
2022-08-19T22:38:02.247Z,6.75
2022-08-19T22:40:30.852Z,6.85
2022-08-19T22:43:00.198Z,7.40
2022-08-19T22:45:28.592Z,7.28
2022-08-19T22:47:56.696Z,7.43
2022-08-19T22:50:26.772Z,6.97
2022-08-19T22:52:57.961Z,6.20
2022-08-19T22:55:26.669Z,6.70
2022-08-19T22:57:55.052Z,6.72
2022-08-19T23:00:23.448Z,6.22
2022-08-19T23:02:51.943Z,6.13
2022-08-19T23:05:22.168Z,7.25
2022-08-19T23:07:53.277Z,6.63
2022-08-19T23:10:27.284Z,6.10
2022-08-19T23:12:57.901Z,6.28
2022-08-19T23:15:26.972Z,6.63
2022-08-19T23:17:55.694Z,6.25
2022-08-19T23:20:27.175Z,6.60
2022-08-19T23:22:57.041Z,9.10
2022-08-19T23:25:27.099Z,6.75
2022-08-19T23:28:12.217Z,6.50
2022-08-19T23:30:42.585Z,6.22
2022-08-19T23:33:15.601Z,5.78
2022-08-19T23:35:43.429Z,5.70
2022-08-19T23:38:12.767Z,6.32
2022-08-19T23:40:40.790Z,5.57
2022-08-19T23:43:09.616Z,5.93
2022-08-19T23:45:38.829Z,5.88
2022-08-19T23:48:07.011Z,6.43
2022-08-19T23:50:35.684Z,6.10
2022-08-19T23:53:04.044Z,5.40
2022-08-19T23:55:34.054Z,5.95
2022-08-19T23:58:02.259Z,5.28
